Time;durP1;ratioP1;P1;durP2;ratioP2;P2;SDS_P1;SDS_P2;PMS_P1;PMS_P2;Temp;Humidity;BMP_temperature;BMP_pressure;BME280_temperature;BME280_humidity;BME280_pressure;Samples;Min_cycle;Max_cycle;Signal;HPM_P1;HPM_P2
2022/05/23 00:00:01;;;;;;;1.92;1.70;;;19.80;91.10;;;19.86;100.00;99675.66;4976528;28;20043;-79
2022/05/23 00:02:28;;;;;;;2.08;1.33;;;19.90;91.50;;;19.74;100.00;99686.28;4978145;28;20043;-79
2022/05/23 00:04:56;;;;;;;8.27;1.50;;;19.70;91.80;;;19.68;100.00;99674.25;4973882;28;20047;-80
2022/05/23 00:07:27;;;;;;;2.85;1.30;;;19.60;92.00;;;19.67;100.00;99667.22;4974217;28;20073;-80
2022/05/23 00:09:55;;;;;;;1.75;1.15;;;19.60;92.20;;;19.62;100.00;99661.34;4973386;28;20404;-79
2022/05/23 00:12:22;;;;;;;1.42;1.33;;;19.50;92.10;;;19.68;100.00;99654.72;4960245;28;20157;-80
2022/05/23 00:14:50;;;;;;;1.38;1.20;;;19.50;91.90;;;19.66;100.00;99652.16;4977767;28;20047;-79
2022/05/23 00:17:19;;;;;;;3.50;1.92;;;19.40;92.00;;;19.56;100.00;99646.63;4977620;28;20066;-79
2022/05/23 00:19:48;;;;;;;2.33;1.55;;;19.80;92.20;;;19.60;100.00;99641.09;4977396;28;20051;-79
2022/05/23 00:22:16;;;;;;;2.15;1.40;;;19.40;92.10;;;19.48;100.00;99633.03;4976538;28;20047;-79
2022/05/23 00:24:45;;;;;;;3.80;1.80;;;19.30;92.10;;;19.43;100.00;99627.16;4975835;28;20050;-79
2022/05/23 00:27:16;;;;;;;2.15;1.63;;;19.30;92.20;;;19.45;100.00;99633.25;4977987;28;20111;-80
2022/05/23 00:29:50;;;;;;;2.40;1.77;;;19.30;92.20;;;19.42;100.00;99636.13;4978079;28;20340;-79
2022/05/23 00:35:19;;;;;;;3.28;1.55;;;19.30;92.50;;;19.41;100.00;99621.09;4993156;28;20093;-79
2022/05/23 00:37:59;;;;;;;2.53;1.50;;;19.20;92.40;;;19.41;100.00;99623.75;4981700;28;20066;-80
2022/05/23 00:40:48;;;;;;;3.10;1.70;;;19.10;92.40;;;19.36;100.00;99621.44;4981213;28;20123;-80
2022/05/23 00:43:25;;;;;;;2.38;1.58;;;19.10;92.50;;;19.29;100.00;99616.66;4977537;28;20117;-80
2022/05/23 00:46:00;;;;;;;4.28;1.70;;;19.10;92.50;;;19.22;100.00;99624.25;4979326;28;20435;-79
2022/05/23 00:48:30;;;;;;;2.95;1.80;;;19.00;92.50;;;19.25;100.00;99616.03;4983390;28;20065;-79
2022/05/23 00:51:10;;;;;;;2.65;1.67;;;18.90;92.50;;;19.19;100.00;99612.00;4980208;28;20161;-80
2022/05/23 00:54:00;;;;;;;3.17;1.85;;;19.00;92.70;;;19.11;100.00;99601.00;4982996;28;20038;-79
2022/05/23 00:56:37;;;;;;;3.63;1.80;;;18.90;93.00;;;18.97;100.00;99594.00;4981211;28;20057;-78
2022/05/23 00:59:05;;;;;;;4.18;1.98;;;20.00;93.50;;;18.95;100.00;99588.75;4963977;28;20105;-79
2022/05/23 01:01:37;;;;;;;3.70;1.88;;;18.80;93.30;;;18.96;100.00;99587.78;4963925;28;20078;-79
2022/05/23 01:04:08;;;;;;;2.70;2.22;;;18.80;93.30;;;18.90;100.00;99579.41;4980789;28;20098;-79
2022/05/23 01:06:36;;;;;;;5.03;1.75;;;18.90;93.60;;;18.86;100.00;99578.78;4964156;28;20038;-78
2022/05/23 01:09:04;;;;;;;2.25;1.77;;;18.80;93.60;;;18.90;100.00;99560.75;4962858;28;20051;-79
2022/05/23 01:11:31;;;;;;;3.25;1.70;;;18.70;93.60;;;18.82;100.00;99556.81;4964231;28;20562;-79
2022/05/23 01:13:59;;;;;;;1.67;1.52;;;18.70;93.80;;;18.75;100.00;99552.03;4980616;28;20050;-78
2022/05/23 01:16:27;;;;;;;2.55;2.03;;;18.60;93.90;;;18.68;100.00;99559.59;4982754;28;20062;-78
2022/05/23 01:18:58;;;;;;;2.55;1.88;;;18.60;94.10;;;18.67;100.00;99541.91;4982270;28;20133;-78
2022/05/23 01:21:34;;;;;;;4.10;1.75;;;18.60;94.20;;;18.75;100.00;99531.59;5002554;28;20023;-78
2022/05/23 01:24:35;;;;;;;5.78;1.75;;;18.50;94.10;;;18.69;100.00;99532.88;4977587;28;20093;-78
2022/05/23 01:27:05;;;;;;;3.42;1.83;;;18.50;94.30;;;18.64;100.00;99537.66;4995548;28;20047;-78
2022/05/23 01:29:36;;;;;;;2.80;1.58;;;18.40;94.40;;;18.69;100.00;99540.00;4962543;28;20677;-79
2022/05/23 01:32:11;;;;;;;3.88;1.90;;;18.50;94.40;;;18.63;100.00;99548.44;4980011;28;20043;-79
2022/05/23 01:34:43;;;;;;;4.03;2.13;;;18.40;94.40;;;18.64;100.00;99558.13;4978031;28;20848;-79
2022/05/23 01:37:13;;;;;;;3.28;1.70;;;18.40;94.40;;;18.59;100.00;99558.44;4963944;28;20047;-78
2022/05/23 01:39:55;;;;;;;2.40;1.80;;;18.40;94.60;;;18.54;100.00;99564.09;4963881;28;20068;-79
2022/05/23 01:42:56;;;;;;;4.10;1.95;;;18.40;94.80;;;18.50;100.00;99559.94;4983489;28;20051;-79
2022/05/23 01:45:37;;;;;;;2.78;1.90;;;18.80;94.90;;;18.52;100.00;99546.53;4978389;28;20057;-79
2022/05/23 01:48:27;;;;;;;2.72;1.83;;;18.30;94.70;;;18.47;100.00;99538.00;4979150;28;20059;-79
2022/05/23 01:50:55;;;;;;;2.58;1.75;;;18.30;94.80;;;18.53;100.00;99534.91;4994888;28;20054;-79
2022/05/23 01:53:23;;;;;;;3.17;1.85;;;18.30;94.80;;;18.45;100.00;99535.47;4978909;28;20050;-77
2022/05/23 01:56:04;;;;;;;3.47;2.03;;;18.30;94.90;;;18.45;100.00;99537.25;4978785;28;20563;-79
2022/05/23 02:01:29;;;;;;;3.28;1.90;;;18.20;95.00;;;18.43;100.00;99532.06;4979370;28;20109;-78
2022/05/23 02:03:58;;;;;;;7.93;2.05;;;18.20;95.10;;;18.39;100.00;99520.75;4979163;28;20117;-78
2022/05/23 02:06:32;;;;;;;4.53;1.95;;;18.20;95.20;;;18.36;100.00;99528.97;4978576;28;20160;-79
2022/05/23 02:09:04;;;;;;;2.88;1.90;;;18.20;95.30;;;18.37;100.00;99525.34;4977435;28;20114;-79
2022/05/23 02:11:37;;;;;;;3.75;2.17;;;18.20;95.20;;;18.39;100.00;99527.88;4977493;28;20526;-78
2022/05/23 02:14:04;;;;;;;3.60;1.73;;;18.60;95.10;;;18.37;100.00;99527.16;4978487;28;20053;-79
2022/05/23 02:16:40;;;;;;;2.22;2.03;;;18.20;95.10;;;18.31;100.00;99517.78;4977843;28;20042;-79
2022/05/23 02:19:07;;;;;;;4.00;2.17;;;18.20;95.20;;;18.31;100.00;99515.13;4973657;28;20124;-79
2022/05/23 02:21:34;;;;;;;3.95;1.92;;;18.20;95.10;;;18.39;100.00;99501.25;4981407;28;20058;-78
2022/05/23 02:24:04;;;;;;;3.80;3.08;;;18.20;95.20;;;18.41;100.00;99494.00;4994628;28;20050;-78
2022/05/23 02:26:32;;;;;;;;;;;18.10;95.00;;;18.38;100.00;99481.78;4995302;28;20051;-79
2022/05/23 02:29:03;;;;;;;2.70;1.60;;;18.20;95.10;;;18.39;100.00;99480.81;4977506;28;19934;-78
2022/05/23 02:31:31;;;;;;;3.28;2.22;;;18.20;95.20;;;18.39;100.00;99475.50;4963062;28;20051;-79
2022/05/23 02:34:04;;;;;;;2.92;1.90;;;18.20;95.00;;;18.39;100.00;99466.63;4966118;28;20062;-79
2022/05/23 02:36:43;;;;;;;3.22;1.83;;;19.80;95.50;;;18.45;100.00;99444.91;4968864;28;20101;-80
2022/05/23 02:39:13;;;;;;;5.25;1.75;;;18.20;95.10;;;18.45;100.00;99444.06;4981639;28;20546;-79
2022/05/23 02:41:42;;;;;;;1.67;1.20;;;18.20;95.00;;;18.45;100.00;99442.25;4981782;28;20151;-79
2022/05/23 02:44:13;;;;;;;7.75;1.65;;;18.20;95.20;;;18.44;100.00;99440.56;4982481;28;20051;-77
2022/05/23 02:46:41;;;;;;;3.10;2.00;;;18.20;95.10;;;18.47;100.00;99437.66;4981944;28;20511;-79
2022/05/23 02:49:13;;;;;;;2.55;1.60;;;18.20;95.10;;;18.34;100.00;99429.72;4981879;28;20058;-78
2022/05/23 02:51:44;;;;;;;3.70;2.00;;;18.60;95.20;;;18.42;100.00;99440.66;4981928;28;20097;-79
2022/05/23 02:54:12;;;;;;;2.97;1.83;;;18.20;95.20;;;18.43;100.00;99442.34;4964901;28;20054;-79
2022/05/23 02:56:43;;;;;;;4.55;1.60;;;18.30;95.20;;;18.43;100.00;99463.66;4980851;28;20043;-78
2022/05/23 02:59:13;;;;;;;2.53;2.00;;;18.90;95.40;;;18.46;100.00;99453.75;4979471;28;20059;-78
2022/05/23 03:04:37;;;;;;;3.00;1.90;;;18.20;95.20;;;18.44;100.00;99461.84;4981155;28;20053;-78
2022/05/23 03:07:04;;;;;;;2.55;1.90;;;18.50;95.40;;;18.38;100.00;99454.28;4981441;28;20043;-78
2022/05/23 03:09:32;;;;;;;4.68;2.20;;;18.20;95.40;;;18.47;100.00;99463.44;4980090;28;20051;-78
2022/05/23 03:12:01;;;;;;;4.93;2.10;;;18.20;95.20;;;18.43;100.00;99468.16;4981276;28;20039;-78
2022/05/23 03:14:29;;;;;;;5.25;1.80;;;19.30;95.60;;;18.49;100.00;99467.69;4981398;28;20078;-79
2022/05/23 03:17:03;;;;;;;2.38;1.92;;;18.20;95.20;;;18.57;100.00;99475.13;4980813;28;20043;-79
2022/05/23 03:19:37;;;;;;;3.33;1.80;;;18.30;95.20;;;18.47;100.00;99466.97;4995332;28;20054;-78
2022/05/23 03:27:44;;;;;;;2.38;1.63;;;18.20;95.50;;;18.46;100.00;99454.59;4982600;28;20061;-79
2022/05/23 03:30:19;;;;;;;3.95;2.05;;;18.30;95.70;;;18.54;100.00;99462.03;4980868;28;20119;-79
2022/05/23 03:32:54;;;;;;;2.95;2.00;;;18.60;95.80;;;18.53;100.00;99486.97;4981220;28;20057;-79
2022/05/23 03:35:22;;;;;;;3.60;2.58;;;18.30;96.00;;;18.55;100.00;99523.19;4980195;28;20078;-78
2022/05/23 03:37:50;;;;;;;3.50;2.20;;;18.30;96.30;;;18.42;100.00;99568.47;4980193;28;20043;-79
2022/05/23 03:40:18;;;;;;;4.50;2.08;;;18.30;96.30;;;18.36;100.00;99635.50;4979409;28;20066;-78
2022/05/23 03:42:56;;;;;;;4.60;2.17;;;18.40;96.30;;;18.38;100.00;99681.50;4998140;28;20093;-79
2022/05/23 03:45:25;;;;;;;3.55;2.33;;;18.30;96.50;;;18.35;100.00;99710.16;4999161;28;20077;-77
2022/05/23 03:47:53;;;;;;;2.45;2.25;;;18.40;97.10;;;18.23;100.00;99738.44;4982010;28;20054;-80
2022/05/23 03:50:24;;;;;;;7.13;2.38;;;18.80;97.40;;;17.95;100.00;99762.38;4978718;28;20435;-78
2022/05/23 03:52:56;;;;;;;3.95;2.35;;;18.20;98.00;;;17.95;100.00;99732.25;4978052;28;20141;-79
2022/05/23 03:55:27;;;;;;;4.93;3.45;;;18.00;98.30;;;17.94;100.00;99720.72;4978431;28;20058;-80
2022/05/23 03:58:10;;;;;;;5.90;3.60;;;18.50;98.70;;;17.92;100.00;99724.47;4980631;28;20800;-79
2022/05/23 04:00:39;;;;;;;5.65;4.00;;;17.80;98.70;;;17.95;100.00;99734.91;4978901;28;20055;-81
2022/05/23 04:03:08;;;;;;;5.57;3.90;;;17.80;99.90;;;17.98;100.00;99743.56;4980064;28;20086;-78
2022/05/23 04:05:35;;;;;;;6.55;3.83;;;17.80;99.90;;;17.92;100.00;99740.44;4979165;28;20322;-80
2022/05/23 04:08:10;;;;;;;4.43;3.17;;;17.90;99.90;;;17.82;100.00;99735.69;4983562;28;20055;-80
2022/05/23 04:10:42;;;;;;;3.83;3.17;;;17.70;99.90;;;17.91;100.00;99731.59;4962607;28;20154;-80
2022/05/23 04:13:13;;;;;;;6.00;3.42;;;18.10;99.90;;;17.81;100.00;99738.47;4964614;28;20054;-79
2022/05/23 04:15:41;;;;;;;4.20;3.45;;;19.30;99.90;;;17.78;100.00;99751.94;4980526;28;20447;-79
2022/05/23 04:18:09;;;;;;;4.80;2.63;;;17.70;99.90;;;17.69;100.00;99748.94;4980349;28;20089;-80
2022/05/23 04:20:38;;;;;;;5.60;3.17;;;17.70;99.90;;;17.74;100.00;99753.97;4979124;28;20094;-80
2022/05/23 04:23:12;;;;;;;5.38;3.30;;;17.60;99.90;;;17.74;100.00;99753.97;4976085;28;20053;-78
2022/05/23 04:25:49;;;;;;;7.45;3.92;;;17.60;99.90;;;17.75;100.00;99739.72;4984387;28;20644;-77
2022/05/23 04:28:20;;;;;;;5.47;3.50;;;17.60;99.90;;;17.66;100.00;99735.84;4969576;28;20547;-78
2022/05/23 04:30:47;;;;;;;7.35;3.80;;;17.60;99.90;;;17.59;100.00;99715.88;4971410;28;20456;-79
2022/05/23 04:36:06;;;;;;;6.00;3.80;;;17.60;99.90;;;17.60;100.00;99698.13;4960663;28;20053;-80
2022/05/23 04:38:38;;;;;;;5.55;3.10;;;17.50;99.90;;;17.54;100.00;99680.75;4973098;28;20050;-78
2022/05/23 04:41:07;;;;;;;8.95;3.80;;;17.40;99.90;;;17.60;100.00;99669.72;4978726;28;20626;-79
2022/05/23 04:43:56;;;;;;;5.40;3.38;;;17.80;99.90;;;17.56;100.00;99642.50;4971851;28;20039;-78
2022/05/23 04:46:26;;;;;;;6.53;3.42;;;17.40;99.90;;;17.56;100.00;99621.22;4971920;28;20043;-77
2022/05/23 04:52:13;;;;;;;4.13;2.90;;;17.40;99.90;;;17.50;100.00;99591.50;4988542;28;20147;-78
2022/05/23 04:54:43;;;;;;;3.90;3.10;;;17.40;99.90;;;17.55;100.00;99586.72;4973550;28;20050;-78
2022/05/23 04:57:12;;;;;;;4.00;3.30;;;17.40;99.90;;;17.50;100.00;99567.56;4972486;28;20042;-78
2022/05/23 04:59:39;;;;;;;5.13;3.42;;;17.40;99.90;;;17.51;100.00;99572.75;4956236;28;20058;-78
2022/05/23 05:02:18;;;;;;;7.43;3.50;;;17.40;99.90;;;17.49;100.00;99558.72;4974655;28;20043;-78
2022/05/23 05:04:46;;;;;;;5.32;3.40;;;17.40;99.90;;;17.29;100.00;99552.03;4988613;28;20149;-78
2022/05/23 05:07:14;;;;;;;6.20;3.63;;;17.40;99.90;;;17.41;100.00;99539.78;4988479;28;20058;-78
2022/05/23 05:09:41;;;;;;;5.38;3.70;;;17.30;99.90;;;17.34;100.00;99536.66;4971064;28;20055;-79
2022/05/23 05:12:11;;;;;;;5.97;3.45;;;17.20;99.90;;;17.36;100.00;99533.88;4971861;28;20050;-78
2022/05/23 05:14:41;;;;;;;7.40;3.40;;;17.20;99.90;;;17.28;100.00;99492.72;4970957;28;20055;-79
2022/05/23 05:17:09;;;;;;;6.22;3.55;;;17.20;99.90;;;17.38;100.00;99450.44;4971306;28;20041;-79
2022/05/23 05:19:38;;;;;;;5.82;3.33;;;17.30;99.90;;;17.32;100.00;99428.72;4972087;28;20113;-78
2022/05/23 05:22:25;;;;;;;6.95;3.67;;;17.40;99.90;;;17.26;100.00;99404.25;4972890;28;20127;-78
2022/05/23 05:25:06;;;;;;;4.88;3.17;;;17.20;99.90;;;17.33;100.00;99403.84;4971600;28;20062;-78
2022/05/23 05:27:56;;;;;;;3.95;3.28;;;17.20;99.90;;;17.43;100.00;99411.06;4974058;28;20061;-78
2022/05/23 05:30:24;;;;;;;6.13;3.67;;;17.20;99.90;;;17.44;100.00;99402.13;4969062;28;20055;-78
2022/05/23 05:33:04;;;;;;;4.65;3.17;;;17.20;99.90;;;17.41;100.00;99369.63;4970754;28;20588;-78
2022/05/23 05:35:42;;;;;;;4.25;3.28;;;17.30;99.90;;;17.41;100.00;99327.06;4970688;28;20508;-78
2022/05/23 05:38:23;;;;;;;5.85;3.60;;;17.30;99.90;;;17.46;100.00;99326.72;4972411;28;20039;-77
2022/05/23 05:41:09;;;;;;;5.82;3.35;;;17.30;99.90;;;17.48;100.00;99320.34;4969174;28;20568;-78
2022/05/23 05:43:43;;;;;;;5.60;3.42;;;17.60;99.90;;;17.58;100.00;99318.75;4964106;28;20149;-76
2022/05/23 05:46:20;;;;;;;5.22;3.40;;;17.30;99.90;;;17.60;100.00;99315.16;4964206;28;20579;-80
2022/05/23 05:48:54;;;;;;;6.85;3.30;;;17.40;99.90;;;17.62;100.00;99294.59;4989395;28;20066;-78
2022/05/23 05:51:23;;;;;;;5.43;3.13;;;17.40;99.90;;;17.69;100.00;99294.06;5004118;28;20070;-79
2022/05/23 05:54:22;;;;;;;4.90;3.25;;;18.10;99.90;;;17.72;100.00;99298.31;4981578;28;20058;-77
2022/05/23 05:57:00;;;;;;;5.30;3.33;;;18.40;99.90;;;17.77;100.00;99290.00;4987848;28;20790;-77
2022/05/23 05:59:29;;;;;;;5.28;3.47;;;17.50;99.90;;;17.72;100.00;99288.53;4982884;28;20053;-76
2022/05/23 06:01:58;;;;;;;3.15;2.85;;;17.50;99.90;;;17.71;100.00;99276.19;4973596;28;20095;-80
2022/05/23 06:04:29;;;;;;;6.63;3.72;;;17.60;99.90;;;17.75;100.00;99282.13;4959376;28;20079;-77
2022/05/23 06:13:31;;;;;;;3.83;2.80;;;17.60;99.90;;;17.73;100.00;99334.59;4989653;28;20051;-77
2022/05/23 06:16:05;;;;;;;6.35;3.60;;;17.60;99.90;;;17.73;100.00;99345.25;5006300;28;20048;-80
2022/05/23 06:18:47;;;;;;;3.47;2.80;;;17.60;99.90;;;17.67;100.00;99369.59;4998808;28;20043;-80
2022/05/23 06:21:15;;;;;;;5.90;3.80;;;17.60;99.90;;;17.61;100.00;99378.84;4980050;28;20077;-80
2022/05/23 06:23:46;;;;;;;5.53;3.10;;;17.60;99.90;;;17.80;100.00;99397.06;4980160;28;20081;-80
2022/05/23 06:26:28;;;;;;;7.57;3.20;;;17.70;99.90;;;17.77;100.00;99399.06;4988359;28;20133;-80
2022/05/23 06:29:22;;;;;;;8.27;3.80;;;17.70;99.90;;;17.74;100.00;99410.78;4976922;28;20769;-80
2022/05/23 06:31:50;;;;;;;5.60;3.72;;;17.70;99.90;;;17.87;100.00;99408.13;4951112;28;20058;-80
2022/05/23 06:34:22;;;;;;;5.85;3.75;;;17.70;99.90;;;17.96;100.00;99394.19;4994024;28;20104;-79
2022/05/23 06:36:53;;;;;;;4.40;3.63;;;17.70;99.90;;;17.82;100.00;99394.28;5000612;28;20077;-80
2022/05/23 06:39:21;;;;;;;5.38;3.50;;;17.80;99.90;;;17.76;100.00;99403.56;4999605;28;20538;-79
2022/05/23 06:42:51;;;;;;;4.53;3.15;;;17.80;99.90;;;17.74;100.00;99416.13;4999873;28;20097;-79
2022/05/23 06:45:31;;;;;;;4.68;3.58;;;17.70;99.90;;;17.78;100.00;99416.72;4994890;28;20053;-80
2022/05/23 06:48:17;;;;;;;4.55;3.95;;;17.70;99.90;;;17.82;100.00;99426.22;4998612;28;20073;-80
2022/05/23 06:50:59;;;;;;;6.13;3.55;;;17.70;99.90;;;17.99;100.00;99417.91;4998248;28;20150;-79
2022/05/23 06:53:36;;;;;;;5.68;4.05;;;17.80;99.90;;;18.11;100.00;99426.03;4949590;28;20149;-80
2022/05/23 06:56:30;;;;;;;5.30;3.10;;;17.90;99.90;;;18.27;100.00;99421.31;4966254;28;20058;-79
2022/05/23 06:59:01;;;;;;;4.78;3.30;;;18.00;99.90;;;18.46;100.00;99417.31;4962599;28;20047;-80
2022/05/23 07:01:33;;;;;;;4.22;3.45;;;18.10;99.90;;;18.58;100.00;99415.56;4962917;28;20051;-80
2022/05/23 07:04:16;;;;;;;3.22;2.92;;;18.20;99.90;;;18.78;100.00;99403.47;4993731;28;20050;-80
2022/05/23 07:12:34;;;;;;;4.50;3.30;;;18.60;99.90;;;18.91;100.00;99419.38;4983505;28;20056;-80
2022/05/23 07:15:05;;;;;;;9.52;4.75;;;18.60;99.90;;;18.96;100.00;99405.72;4950013;28;20682;-79
2022/05/23 07:17:37;;;;;;;3.35;3.03;;;18.70;99.90;;;19.05;100.00;99402.41;4963051;28;20077;-79
2022/05/23 07:20:22;;;;;;;11.00;3.47;;;18.80;99.90;;;19.20;100.00;99410.19;4978053;28;20073;-78
2022/05/23 07:23:15;;;;;;;6.75;3.30;;;18.80;99.90;;;19.33;100.00;99402.97;4954341;28;20415;-78
2022/05/23 07:25:48;;;;;;;4.57;2.72;;;19.00;99.90;;;19.30;100.00;99399.69;4958630;28;20047;-79
2022/05/23 07:28:35;;;;;;;5.03;2.92;;;19.10;99.90;;;19.26;100.00;99391.91;4974771;28;20046;-79
2022/05/23 07:31:03;;;;;;;4.93;3.50;;;19.10;99.90;;;19.26;100.00;99375.91;4956995;28;20269;-78
2022/05/23 07:33:31;;;;;;;6.18;3.00;;;19.00;99.90;;;19.16;100.00;99377.59;4956122;28;20141;-79
2022/05/23 07:36:01;;;;;;;3.75;2.80;;;19.10;99.90;;;19.28;100.00;99373.13;4955263;28;20074;-80
2022/05/23 07:38:29;;;;;;;8.05;3.47;;;19.10;99.90;;;19.46;100.00;99375.34;4971802;28;20050;-79
2022/05/23 07:41:00;;;;;;;4.57;2.88;;;19.10;99.90;;;19.41;100.00;99379.22;4971017;28;20043;-79
2022/05/23 07:43:39;;;;;;;6.07;2.80;;;19.20;99.90;;;19.49;100.00;99372.44;4985284;28;20522;-80
2022/05/23 07:46:12;;;;;;;7.30;2.97;;;19.20;99.90;;;19.58;100.00;99358.41;4969263;28;20047;-78
2022/05/23 07:48:46;;;;;;;4.35;2.97;;;19.30;99.90;;;19.68;100.00;99369.19;4953395;28;20113;-79
2022/05/23 07:51:17;;;;;;;6.57;3.15;;;19.30;99.90;;;19.82;100.00;99362.75;4969556;28;20515;-79
2022/05/23 08:02:15;;;;;;;3.80;2.72;;;19.80;99.90;;;20.33;100.00;99332.03;4988218;28;20059;-77
2022/05/23 08:04:54;;;;;;;4.65;2.67;;;20.10;99.90;;;20.33;100.00;99315.19;4973205;28;20058;-77
2022/05/23 08:07:21;;;;;;;2.83;2.35;;;20.00;99.90;;;20.33;100.00;99318.69;4972996;28;20055;-78
2022/05/23 08:09:49;;;;;;;6.38;3.60;;;20.10;99.90;;;20.39;100.00;99334.22;4956419;28;20046;-78
2022/05/23 08:12:17;;;;;;;4.88;2.65;;;20.10;99.90;;;20.33;100.00;99326.69;4972870;28;20106;-78
2022/05/23 08:14:44;;;;;;;4.80;3.15;;;20.10;99.90;;;20.43;100.00;99316.09;4971785;28;20050;-78
2022/05/23 08:17:28;;;;;;;6.03;2.58;;;20.10;99.90;;;20.49;100.00;99318.28;4957881;28;20043;-79
2022/05/23 08:20:01;;;;;;;5.65;2.75;;;20.20;99.90;;;20.63;100.00;99305.59;4971196;28;20054;-79
2022/05/23 08:22:34;;;;;;;4.28;2.50;;;20.20;99.90;;;20.51;100.00;99296.78;4953304;28;20055;-78
2022/05/23 08:25:14;;;;;;;4.03;2.75;;;20.30;99.90;;;20.71;100.00;99297.78;4970191;28;20076;-78
2022/05/23 08:27:53;;;;;;;3.38;2.35;;;20.50;99.90;;;20.80;100.00;99301.50;4969638;28;20078;-78
2022/05/23 08:30:20;;;;;;;4.43;2.35;;;20.40;99.90;;;20.92;100.00;99291.66;4967940;28;20479;-77
2022/05/23 08:32:48;;;;;;;2.97;2.67;;;20.60;99.90;;;21.05;100.00;99296.81;4968530;28;20050;-78
2022/05/23 08:35:18;;;;;;;7.15;2.88;;;20.50;99.90;;;21.11;100.00;99309.63;4952131;28;20137;-78
2022/05/23 08:37:59;;;;;;;6.43;2.65;;;20.60;99.90;;;21.20;100.00;99305.31;4969656;28;20114;-78
2022/05/23 08:41:00;;;;;;;5.68;2.50;;;20.70;99.90;;;21.35;100.00;99308.53;4969925;28;20101;-78
2022/05/23 08:44:11;;;;;;;5.07;2.92;;;21.00;99.90;;;21.54;100.00;99330.03;4984555;28;20139;-78
2022/05/23 08:46:53;;;;;;;4.25;2.20;;;21.00;99.90;;;21.57;100.00;99325.38;4967272;28;20054;-79
2022/05/23 08:49:45;;;;;;;3.20;2.42;;;21.10;99.90;;;21.68;100.00;99326.16;4967575;28;20073;-78
2022/05/23 08:52:27;;;;;;;4.10;2.50;;;21.10;99.90;;;21.76;100.00;99336.19;4967876;28;20424;-79
2022/05/23 08:55:17;;;;;;;4.15;2.58;;;21.30;99.90;;;21.79;100.00;99341.31;4952481;28;20054;-78
2022/05/23 08:58:10;;;;;;;4.60;3.08;;;21.30;99.80;;;21.77;100.00;99343.25;4983002;28;20508;-79
2022/05/23 09:00:44;;;;;;;7.30;2.75;;;21.40;99.60;;;21.85;100.00;99339.06;4967479;28;20512;-78
2022/05/23 09:03:33;;;;;;;5.07;2.95;;;22.90;99.90;;;21.98;100.00;99344.16;4967933;28;20471;-77
2022/05/23 09:06:29;;;;;;;3.42;2.97;;;21.50;99.50;;;22.05;100.00;99353.38;4968042;28;20046;-77
2022/05/23 09:09:06;;;;;;;6.75;2.90;;;21.60;99.40;;;22.06;100.00;99345.19;4969042;28;20133;-78
2022/05/23 09:11:41;;;;;;;4.88;3.10;;;21.70;99.30;;;22.01;100.00;99333.19;4970483;28;20061;-77
2022/05/23 09:14:12;;;;;;;3.47;2.78;;;21.70;99.10;;;22.00;100.00;99329.69;4968215;28;20647;-77
2022/05/23 09:16:46;;;;;;;5.10;2.85;;;21.70;99.20;;;22.21;100.00;99328.72;4969188;28;20046;-77
2022/05/23 09:19:19;;;;;;;3.95;2.78;;;21.80;99.30;;;22.39;100.00;99332.44;4952421;28;20051;-78
2022/05/23 09:24:41;;;;;;;7.28;3.40;;;22.00;99.00;;;22.42;100.00;99322.44;4961947;28;20146;-76
2022/05/23 09:27:28;;;;;;;6.68;3.17;;;22.00;99.10;;;22.59;100.00;99315.56;4948938;29;20142;-76
2022/05/23 09:29:59;;;;;;;4.32;2.67;;;22.00;99.40;;;22.55;100.00;99298.06;4962156;28;20098;-76
2022/05/23 09:33:07;;;;;;;5.47;3.17;;;22.10;99.30;;;22.67;100.00;99300.47;4962699;28;20061;-76
2022/05/23 09:35:55;;;;;;;5.63;2.80;;;22.10;99.30;;;22.59;100.00;99299.47;4949009;28;20429;-77
2022/05/23 09:38:30;;;;;;;3.87;3.00;;;22.30;98.80;;;22.72;100.00;99307.25;4965198;28;20043;-76
2022/05/23 09:47:45;;;;;;;4.72;3.08;;;22.60;98.80;;;23.18;100.00;99321.75;4971366;28;20046;-76
2022/05/23 09:50:37;;;;;;;;;;;22.60;99.00;;;23.51;100.00;99311.50;4970680;28;20039;-76
2022/05/23 09:53:17;;;;;;;6.90;2.83;;;22.80;99.10;;;23.42;100.00;99303.50;4968825;28;19926;-76
2022/05/23 09:55:47;;;;;;;4.88;3.22;;;23.00;98.40;;;23.54;100.00;99307.66;4970090;28;20415;-75
2022/05/23 09:58:31;;;;;;;3.30;2.70;;;23.10;98.00;;;23.57;100.00;99309.22;4970999;28;20070;-77
2022/05/23 10:01:08;;;;;;;6.28;3.35;;;23.20;98.00;;;23.92;100.00;99299.59;4970649;28;20407;-78
2022/05/23 10:03:47;;;;;;;5.15;3.20;;;23.30;98.00;;;24.07;100.00;99295.44;4970778;28;20082;-78
2022/05/23 10:06:16;;;;;;;5.57;3.70;;;23.50;98.00;;;24.09;100.00;99300.66;4970351;28;20470;-78
2022/05/23 10:08:46;;;;;;;4.72;3.63;;;23.60;97.40;;;24.12;100.00;99295.00;4970506;28;20051;-80
2022/05/23 10:11:34;;;;;;;5.13;3.10;;;23.70;97.20;;;24.13;100.00;99302.06;4970544;28;20114;-78
2022/05/23 10:14:05;;;;;;;4.28;3.40;;;23.80;96.90;;;24.12;100.00;99311.09;4970571;28;20073;-77
2022/05/23 10:16:59;;;;;;;6.32;3.88;;;23.80;96.80;;;24.07;100.00;99302.66;4970911;28;20138;-77
2022/05/23 10:19:37;;;;;;;4.93;3.17;;;23.70;96.60;;;24.28;100.00;99297.03;4954349;28;20053;-77
2022/05/23 10:22:26;;;;;;;7.18;3.70;;;23.80;97.10;;;24.41;100.00;99303.84;4966484;28;20524;-78
2022/05/23 10:25:05;;;;;;;7.38;3.33;;;23.90;97.10;;;24.40;100.00;99310.22;4967887;28;20055;-81
2022/05/23 10:27:40;;;;;;;5.78;3.05;;;24.00;96.70;;;24.27;100.00;99315.97;4971712;28;20043;-77
2022/05/23 10:30:10;;;;;;;5.63;3.38;;;24.10;96.40;;;24.29;100.00;99300.53;4973183;28;20039;-79
2022/05/23 10:32:52;;;;;;;5.95;3.60;;;24.00;96.50;;;24.17;100.00;99313.34;4973633;28;20108;-79
2022/05/23 10:35:21;;;;;;;5.13;3.38;;;24.00;96.50;;;24.27;100.00;99316.81;4974038;28;20062;-79
2022/05/23 10:37:51;;;;;;;5.53;3.20;;;24.00;96.70;;;24.16;100.00;99315.19;4970087;28;20078;-79
2022/05/23 10:43:19;;;;;;;9.35;4.18;;;23.90;96.70;;;24.24;100.00;99325.16;4970483;28;20689;-79
2022/05/23 10:45:54;;;;;;;5.15;2.97;;;23.90;96.80;;;24.15;100.00;99328.78;4970695;28;20118;-78
2022/05/23 10:48:46;;;;;;;6.65;3.53;;;23.90;96.60;;;24.22;100.00;99332.53;4973415;28;20047;-79
2022/05/23 10:51:48;;;;;;;6.72;3.45;;;23.90;96.70;;;24.12;100.00;99329.91;4973016;28;20054;-79
2022/05/23 10:54:43;;;;;;;5.55;3.63;;;23.80;96.80;;;24.04;100.00;99327.97;4990217;28;20073;-79
2022/05/23 10:57:19;;;;;;;5.78;3.67;;;23.80;96.90;;;24.03;100.00;99317.38;4958134;28;20685;-79
2022/05/23 11:00:07;;;;;;;4.28;3.80;;;23.70;97.20;;;23.84;100.00;99319.13;4973995;28;20074;-79
2022/05/23 11:03:08;;;;;;;5.05;3.83;;;23.70;97.20;;;23.78;100.00;99330.47;4975195;28;20118;-79
2022/05/23 11:06:19;;;;;;;4.28;3.35;;;23.60;97.50;;;23.67;100.00;99331.53;4973552;28;20511;-79
2022/05/23 11:09:29;;;;;;;6.32;4.18;;;23.40;97.70;;;23.60;100.00;99306.25;4973282;28;20536;-79
2022/05/23 11:12:32;;;;;;;7.87;4.10;;;23.30;97.80;;;23.60;100.00;99272.19;4945146;28;20078;-80
2022/05/23 11:15:18;;;;;;;6.20;3.90;;;23.30;98.20;;;23.84;100.00;99241.25;4962165;28;20049;-80
2022/05/23 11:18:15;;;;;;;7.88;4.40;;;23.30;98.40;;;23.80;100.00;99261.34;4993413;28;20051;-80
2022/05/23 11:20:42;;;;;;;7.90;4.30;;;23.30;98.60;;;23.81;100.00;99256.84;4989017;28;20146;-78
2022/05/23 11:23:45;;;;;;;6.07;4.80;;;23.40;98.70;;;23.83;100.00;99252.16;4959369;28;20139;-78
2022/05/23 11:26:33;;;;;;;5.38;4.38;;;23.40;98.60;;;23.91;100.00;99244.19;4975123;28;20046;-79
2022/05/23 11:35:00;;;;;;;6.72;3.55;;;23.50;98.00;;;23.70;100.00;99239.94;4961297;28;20051;-78
2022/05/23 11:37:49;;;;;;;4.88;3.50;;;23.40;98.10;;;23.51;100.00;99267.72;4965041;28;20076;-79
2022/05/23 11:40:25;;;;;;;15.75;4.97;;;23.40;97.90;;;23.45;100.00;99276.38;4974205;28;20051;-79
2022/05/23 11:43:10;;;;;;;5.53;4.32;;;23.20;98.20;;;23.49;100.00;99259.81;4971009;28;20589;-79
2022/05/23 11:46:02;;;;;;;9.63;4.00;;;23.30;98.30;;;23.42;100.00;99253.34;4973183;28;20043;-79
2022/05/23 11:48:43;;;;;;;5.68;3.80;;;23.00;98.50;;;23.37;100.00;99253.78;4973954;28;20061;-79